Terminal Aerodrome Forecast
Issued by NWS Corpus Christi, TX

Home | Current Version | Previous Version | Text Only | Print | Product List | Glossary On
Versions: 1 2 3 4 5 6 7 8 9 10 11 12 13 14
000
FTUS44 KCRP 280500
TAFCRP
TAF
KCRP 280530Z 2806/2906 08007KT P6SM FEW070
     FM280800 VRB03KT 6SM BR SCT015
     FM281500 18007KT P6SM BKN030
     FM281900 16014G19KT P6SM SCT035
     FM290000 16008KT P6SM FEW030=

USA.gov is the U.S. government's official web portal to all federal, state and local government web resources and services.